Gulnare, Kentucky
Current Conditions -  °F | °C
As of 8:15 AM on Wednesday 22 Oct 2014 (Local Time) from KPBX Reporting Station
Overcast Overcast  
Wind Chill: 40°   Ceiling: 800
Heat Index: 42°   Visibility: 10mi
Dew Point: 40°   Wind: 5mph
Humidity: 91%   Direction: 330°NNW
Pressure: 30.19"   Gusts: NA
Location:  37.5348°N, 82.513°W
Report Text: KPBX 221215Z AUTO 33004KT 10SM OVC008 06/05 A3019 RMK AO2 T00580045
Loading
Personal Weather Stations






























Interactive Weather Map
Tropical Storm Tracking
New forecast layout! Learn more

10-Day Weather Forecast

Advertisements
Track Severe Weather on mobile